sensor_id;sensor_type;location;lat;lon;timestamp;P1;durP1;ratioP1;P2;durP2;ratioP2
31114;SDS011;17764;47.152;9.828;2023-04-06T00:00:56;5.13;;;4.13;;
31114;SDS011;17764;47.152;9.828;2023-04-06T00:03:22;7.70;;;4.37;;
31114;SDS011;17764;47.152;9.828;2023-04-06T00:05:49;5.40;;;4.37;;
31114;SDS011;17764;47.152;9.828;2023-04-06T00:08:15;4.90;;;4.20;;
31114;SDS011;17764;47.152;9.828;2023-04-06T00:10:41;5.70;;;3.97;;
31114;SDS011;17764;47.152;9.828;2023-04-06T00:13:07;5.33;;;4.63;;
31114;SDS011;17764;47.152;9.828;2023-04-06T00:15:33;7.80;;;4.30;;
31114;SDS011;17764;47.152;9.828;2023-04-06T00:18:00;5.67;;;4.10;;
31114;SDS011;17764;47.152;9.828;2023-04-06T00:20:26;4.70;;;3.97;;
31114;SDS011;17764;47.152;9.828;2023-04-06T00:22:52;5.33;;;4.43;;
31114;SDS011;17764;47.152;9.828;2023-04-06T00:25:19;5.03;;;4.00;;
31114;SDS011;17764;47.152;9.828;2023-04-06T00:27:45;6.17;;;4.50;;
31114;SDS011;17764;47.152;9.828;2023-04-06T00:30:11;5.00;;;4.03;;
31114;SDS011;17764;47.152;9.828;2023-04-06T00:32:38;6.73;;;4.67;;
31114;SDS011;17764;47.152;9.828;2023-04-06T00:35:04;5.47;;;4.30;;
31114;SDS011;17764;47.152;9.828;2023-04-06T00:37:31;6.20;;;4.80;;
31114;SDS011;17764;47.152;9.828;2023-04-06T00:39:57;6.10;;;4.53;;
31114;SDS011;17764;47.152;9.828;2023-04-06T00:42:23;5.03;;;4.27;;
31114;SDS011;17764;47.152;9.828;2023-04-06T00:44:53;5.27;;;3.80;;
31114;SDS011;17764;47.152;9.828;2023-04-06T00:47:19;5.80;;;4.30;;
31114;SDS011;17764;47.152;9.828;2023-04-06T00:49:45;6.13;;;4.63;;
31114;SDS011;17764;47.152;9.828;2023-04-06T00:52:12;6.60;;;4.27;;
31114;SDS011;17764;47.152;9.828;2023-04-06T00:54:38;4.57;;;4.00;;
31114;SDS011;17764;47.152;9.828;2023-04-06T00:57:04;5.37;;;4.43;;
31114;SDS011;17764;47.152;9.828;2023-04-06T00:59:30;5.10;;;4.20;;
31114;SDS011;17764;47.152;9.828;2023-04-06T01:01:57;5.23;;;4.03;;
31114;SDS011;17764;47.152;9.828;2023-04-06T01:04:23;5.13;;;4.20;;
31114;SDS011;17764;47.152;9.828;2023-04-06T01:06:49;5.17;;;3.83;;
31114;SDS011;17764;47.152;9.828;2023-04-06T01:09:19;6.13;;;3.90;;
31114;SDS011;17764;47.152;9.828;2023-04-06T01:11:45;5.07;;;3.93;;
31114;SDS011;17764;47.152;9.828;2023-04-06T01:14:11;4.57;;;4.00;;
31114;SDS011;17764;47.152;9.828;2023-04-06T01:16:37;4.43;;;3.73;;
31114;SDS011;17764;47.152;9.828;2023-04-06T01:19:10;5.50;;;4.20;;
31114;SDS011;17764;47.152;9.828;2023-04-06T01:21:36;4.83;;;4.13;;
31114;SDS011;17764;47.152;9.828;2023-04-06T01:24:03;5.13;;;3.90;;
31114;SDS011;17764;47.152;9.828;2023-04-06T01:26:29;5.07;;;4.20;;
31114;SDS011;17764;47.152;9.828;2023-04-06T01:28:55;6.33;;;4.20;;
31114;SDS011;17764;47.152;9.828;2023-04-06T01:31:21;5.30;;;3.87;;
31114;SDS011;17764;47.152;9.828;2023-04-06T01:33:48;4.30;;;3.60;;
31114;SDS011;17764;47.152;9.828;2023-04-06T01:36:14;5.57;;;4.00;;
31114;SDS011;17764;47.152;9.828;2023-04-06T01:38:40;6.90;;;3.70;;
31114;SDS011;17764;47.152;9.828;2023-04-06T01:41:07;4.17;;;3.70;;
31114;SDS011;17764;47.152;9.828;2023-04-06T01:43:33;4.53;;;3.60;;
31114;SDS011;17764;47.152;9.828;2023-04-06T01:45:59;4.73;;;3.70;;
31114;SDS011;17764;47.152;9.828;2023-04-06T01:48:26;4.80;;;3.70;;
31114;SDS011;17764;47.152;9.828;2023-04-06T01:50:52;4.73;;;3.40;;
31114;SDS011;17764;47.152;9.828;2023-04-06T01:53:18;3.87;;;3.47;;
31114;SDS011;17764;47.152;9.828;2023-04-06T01:55:44;4.70;;;3.93;;
31114;SDS011;17764;47.152;9.828;2023-04-06T01:58:10;4.50;;;3.63;;
31114;SDS011;17764;47.152;9.828;2023-04-06T02:00:36;3.90;;;3.43;;
31114;SDS011;17764;47.152;9.828;2023-04-06T02:03:02;5.13;;;3.63;;
31114;SDS011;17764;47.152;9.828;2023-04-06T02:05:29;4.97;;;3.37;;
31114;SDS011;17764;47.152;9.828;2023-04-06T02:07:55;4.73;;;3.70;;
31114;SDS011;17764;47.152;9.828;2023-04-06T02:10:22;4.10;;;3.53;;
31114;SDS011;17764;47.152;9.828;2023-04-06T02:12:48;4.83;;;3.70;;
31114;SDS011;17764;47.152;9.828;2023-04-06T02:15:15;4.90;;;3.97;;
31114;SDS011;17764;47.152;9.828;2023-04-06T02:17:41;5.50;;;4.20;;
31114;SDS011;17764;47.152;9.828;2023-04-06T02:20:07;6.37;;;4.10;;
31114;SDS011;17764;47.152;9.828;2023-04-06T02:22:36;4.83;;;4.10;;
31114;SDS011;17764;47.152;9.828;2023-04-06T02:25:02;5.30;;;4.07;;
31114;SDS011;17764;47.152;9.828;2023-04-06T02:27:29;5.17;;;4.20;;
31114;SDS011;17764;47.152;9.828;2023-04-06T02:29:55;4.87;;;4.10;;
31114;SDS011;17764;47.152;9.828;2023-04-06T02:32:21;4.97;;;3.87;;
31114;SDS011;17764;47.152;9.828;2023-04-06T02:34:47;4.47;;;3.90;;
31114;SDS011;17764;47.152;9.828;2023-04-06T02:37:13;5.07;;;4.17;;
31114;SDS011;17764;47.152;9.828;2023-04-06T02:39:39;6.27;;;4.03;;
31114;SDS011;17764;47.152;9.828;2023-04-06T02:42:05;5.57;;;4.23;;
31114;SDS011;17764;47.152;9.828;2023-04-06T02:44:32;4.50;;;3.73;;
31114;SDS011;17764;47.152;9.828;2023-04-06T02:46:58;4.93;;;4.10;;
31114;SDS011;17764;47.152;9.828;2023-04-06T02:49:24;5.57;;;4.40;;
31114;SDS011;17764;47.152;9.828;2023-04-06T02:51:50;4.73;;;3.67;;
31114;SDS011;17764;47.152;9.828;2023-04-06T02:54:16;5.30;;;3.70;;
31114;SDS011;17764;47.152;9.828;2023-04-06T02:56:42;5.07;;;4.27;;
31114;SDS011;17764;47.152;9.828;2023-04-06T02:59:08;4.77;;;3.43;;
31114;SDS011;17764;47.152;9.828;2023-04-06T03:01:35;4.70;;;3.60;;
31114;SDS011;17764;47.152;9.828;2023-04-06T03:04:01;4.67;;;3.53;;
31114;SDS011;17764;47.152;9.828;2023-04-06T03:06:27;5.17;;;3.47;;
31114;SDS011;17764;47.152;9.828;2023-04-06T03:08:53;5.00;;;3.87;;
31114;SDS011;17764;47.152;9.828;2023-04-06T03:11:20;3.73;;;3.30;;
31114;SDS011;17764;47.152;9.828;2023-04-06T03:13:46;5.53;;;3.80;;
31114;SDS011;17764;47.152;9.828;2023-04-06T03:16:12;4.47;;;3.60;;
31114;SDS011;17764;47.152;9.828;2023-04-06T03:18:38;4.27;;;3.87;;
31114;SDS011;17764;47.152;9.828;2023-04-06T03:21:04;4.63;;;3.73;;
31114;SDS011;17764;47.152;9.828;2023-04-06T03:23:30;5.07;;;4.17;;
31114;SDS011;17764;47.152;9.828;2023-04-06T03:25:57;4.67;;;3.70;;
31114;SDS011;17764;47.152;9.828;2023-04-06T03:28:23;4.07;;;3.67;;
31114;SDS011;17764;47.152;9.828;2023-04-06T03:30:49;4.97;;;3.67;;
31114;SDS011;17764;47.152;9.828;2023-04-06T03:33:15;4.23;;;3.70;;
31114;SDS011;17764;47.152;9.828;2023-04-06T03:35:41;5.10;;;3.70;;
31114;SDS011;17764;47.152;9.828;2023-04-06T03:38:07;3.93;;;3.43;;
31114;SDS011;17764;47.152;9.828;2023-04-06T03:40:33;4.40;;;3.33;;
31114;SDS011;17764;47.152;9.828;2023-04-06T03:42:59;4.30;;;3.90;;
31114;SDS011;17764;47.152;9.828;2023-04-06T03:45:25;4.83;;;3.93;;
31114;SDS011;17764;47.152;9.828;2023-04-06T03:47:51;5.07;;;3.43;;
31114;SDS011;17764;47.152;9.828;2023-04-06T03:50:17;4.30;;;3.90;;
31114;SDS011;17764;47.152;9.828;2023-04-06T03:52:43;4.43;;;3.87;;
31114;SDS011;17764;47.152;9.828;2023-04-06T03:55:10;4.47;;;3.93;;
31114;SDS011;17764;47.152;9.828;2023-04-06T03:57:36;5.63;;;4.30;;
31114;SDS011;17764;47.152;9.828;2023-04-06T04:00:02;4.93;;;3.57;;
31114;SDS011;17764;47.152;9.828;2023-04-06T04:02:29;5.17;;;3.73;;
31114;SDS011;17764;47.152;9.828;2023-04-06T04:04:55;4.30;;;3.47;;
31114;SDS011;17764;47.152;9.828;2023-04-06T04:07:21;6.00;;;4.07;;
31114;SDS011;17764;47.152;9.828;2023-04-06T04:09:47;4.87;;;3.87;;
31114;SDS011;17764;47.152;9.828;2023-04-06T04:12:13;4.27;;;3.87;;
31114;SDS011;17764;47.152;9.828;2023-04-06T04:14:41;4.13;;;3.73;;
31114;SDS011;17764;47.152;9.828;2023-04-06T04:17:08;6.53;;;3.70;;
31114;SDS011;17764;47.152;9.828;2023-04-06T04:19:35;4.87;;;4.00;;
31114;SDS011;17764;47.152;9.828;2023-04-06T04:22:01;5.83;;;4.00;;
31114;SDS011;17764;47.152;9.828;2023-04-06T04:24:29;5.13;;;3.73;;
31114;SDS011;17764;47.152;9.828;2023-04-06T04:26:56;4.80;;;4.07;;
31114;SDS011;17764;47.152;9.828;2023-04-06T04:29:22;5.33;;;4.20;;
31114;SDS011;17764;47.152;9.828;2023-04-06T04:31:48;5.23;;;3.80;;
31114;SDS011;17764;47.152;9.828;2023-04-06T04:34:15;6.70;;;4.07;;
31114;SDS011;17764;47.152;9.828;2023-04-06T04:36:41;4.60;;;4.03;;
31114;SDS011;17764;47.152;9.828;2023-04-06T04:39:07;4.87;;;4.37;;
31114;SDS011;17764;47.152;9.828;2023-04-06T04:41:33;6.70;;;4.43;;
31114;SDS011;17764;47.152;9.828;2023-04-06T04:44:00;6.10;;;4.70;;
31114;SDS011;17764;47.152;9.828;2023-04-06T04:46:26;6.63;;;4.50;;
31114;SDS011;17764;47.152;9.828;2023-04-06T04:48:52;5.93;;;4.20;;
31114;SDS011;17764;47.152;9.828;2023-04-06T04:51:18;6.27;;;4.00;;
31114;SDS011;17764;47.152;9.828;2023-04-06T04:53:45;5.27;;;4.07;;
31114;SDS011;17764;47.152;9.828;2023-04-06T04:56:11;4.87;;;3.80;;
31114;SDS011;17764;47.152;9.828;2023-04-06T04:58:37;7.73;;;4.40;;
31114;SDS011;17764;47.152;9.828;2023-04-06T05:01:03;4.97;;;4.07;;
31114;SDS011;17764;47.152;9.828;2023-04-06T05:03:29;6.67;;;4.20;;
31114;SDS011;17764;47.152;9.828;2023-04-06T05:05:56;5.13;;;3.80;;
31114;SDS011;17764;47.152;9.828;2023-04-06T05:08:22;5.57;;;3.87;;
31114;SDS011;17764;47.152;9.828;2023-04-06T05:10:48;5.67;;;4.33;;
31114;SDS011;17764;47.152;9.828;2023-04-06T05:13:14;5.83;;;5.07;;
31114;SDS011;17764;47.152;9.828;2023-04-06T05:15:40;9.47;;;5.10;;
31114;SDS011;17764;47.152;9.828;2023-04-06T05:18:07;4.97;;;4.47;;
31114;SDS011;17764;47.152;9.828;2023-04-06T05:20:34;7.80;;;4.97;;
31114;SDS011;17764;47.152;9.828;2023-04-06T05:23:00;8.00;;;5.00;;
31114;SDS011;17764;47.152;9.828;2023-04-06T05:25:26;7.80;;;5.33;;
31114;SDS011;17764;47.152;9.828;2023-04-06T05:27:53;8.50;;;6.70;;
31114;SDS011;17764;47.152;9.828;2023-04-06T05:30:19;17.13;;;9.43;;
31114;SDS011;17764;47.152;9.828;2023-04-06T05:32:46;16.83;;;10.40;;
31114;SDS011;17764;47.152;9.828;2023-04-06T05:35:12;15.23;;;9.07;;
31114;SDS011;17764;47.152;9.828;2023-04-06T05:37:38;13.27;;;8.20;;
31114;SDS011;17764;47.152;9.828;2023-04-06T05:40:05;12.73;;;8.03;;
31114;SDS011;17764;47.152;9.828;2023-04-06T05:42:37;11.00;;;7.53;;
31114;SDS011;17764;47.152;9.828;2023-04-06T05:45:04;13.63;;;8.17;;
31114;SDS011;17764;47.152;9.828;2023-04-06T05:47:30;10.13;;;7.20;;
31114;SDS011;17764;47.152;9.828;2023-04-06T05:49:56;10.33;;;7.57;;
31114;SDS011;17764;47.152;9.828;2023-04-06T05:52:22;10.80;;;6.37;;
31114;SDS011;17764;47.152;9.828;2023-04-06T05:54:48;8.77;;;6.47;;
31114;SDS011;17764;47.152;9.828;2023-04-06T05:57:15;9.07;;;6.50;;
31114;SDS011;17764;47.152;9.828;2023-04-06T05:59:43;9.67;;;6.40;;
31114;SDS011;17764;47.152;9.828;2023-04-06T06:02:10;11.03;;;6.60;;
31114;SDS011;17764;47.152;9.828;2023-04-06T06:04:36;10.23;;;6.30;;
31114;SDS011;17764;47.152;9.828;2023-04-06T06:07:02;10.57;;;6.97;;
31114;SDS011;17764;47.152;9.828;2023-04-06T06:09:28;7.83;;;6.03;;
31114;SDS011;17764;47.152;9.828;2023-04-06T06:11:54;11.37;;;6.67;;
31114;SDS011;17764;47.152;9.828;2023-04-06T06:14:21;8.47;;;6.73;;
31114;SDS011;17764;47.152;9.828;2023-04-06T06:16:47;10.27;;;6.20;;
31114;SDS011;17764;47.152;9.828;2023-04-06T06:19:13;11.57;;;7.90;;
31114;SDS011;17764;47.152;9.828;2023-04-06T06:21:39;9.60;;;7.43;;
31114;SDS011;17764;47.152;9.828;2023-04-06T06:24:06;10.37;;;8.10;;
31114;SDS011;17764;47.152;9.828;2023-04-06T06:26:32;9.17;;;7.10;;
31114;SDS011;17764;47.152;9.828;2023-04-06T06:29:02;11.00;;;7.40;;
31114;SDS011;17764;47.152;9.828;2023-04-06T06:31:29;9.80;;;7.37;;
31114;SDS011;17764;47.152;9.828;2023-04-06T06:33:55;7.53;;;6.13;;
31114;SDS011;17764;47.152;9.828;2023-04-06T06:36:21;9.20;;;6.50;;
31114;SDS011;17764;47.152;9.828;2023-04-06T06:38:47;8.03;;;6.03;;
31114;SDS011;17764;47.152;9.828;2023-04-06T06:41:14;8.80;;;6.03;;
31114;SDS011;17764;47.152;9.828;2023-04-06T06:43:41;8.67;;;5.80;;
31114;SDS011;17764;47.152;9.828;2023-04-06T06:46:07;6.37;;;5.00;;
31114;SDS011;17764;47.152;9.828;2023-04-06T06:48:33;7.17;;;4.83;;
31114;SDS011;17764;47.152;9.828;2023-04-06T06:50:59;5.57;;;4.57;;
31114;SDS011;17764;47.152;9.828;2023-04-06T06:53:25;4.37;;;3.73;;
31114;SDS011;17764;47.152;9.828;2023-04-06T06:55:51;6.03;;;4.47;;
31114;SDS011;17764;47.152;9.828;2023-04-06T06:58:17;7.23;;;3.70;;
31114;SDS011;17764;47.152;9.828;2023-04-06T07:00:45;5.10;;;3.57;;
31114;SDS011;17764;47.152;9.828;2023-04-06T07:03:11;4.57;;;3.33;;
31114;SDS011;17764;47.152;9.828;2023-04-06T07:05:37;5.10;;;3.50;;
31114;SDS011;17764;47.152;9.828;2023-04-06T07:08:03;4.13;;;3.27;;
31114;SDS011;17764;47.152;9.828;2023-04-06T07:10:30;3.50;;;3.07;;
31114;SDS011;17764;47.152;9.828;2023-04-06T07:12:56;4.83;;;3.63;;
31114;SDS011;17764;47.152;9.828;2023-04-06T07:15:22;5.30;;;3.53;;
31114;SDS011;17764;47.152;9.828;2023-04-06T07:17:48;4.60;;;3.10;;
31114;SDS011;17764;47.152;9.828;2023-04-06T07:20:14;4.13;;;3.10;;
31114;SDS011;17764;47.152;9.828;2023-04-06T07:22:42;6.53;;;3.60;;
31114;SDS011;17764;47.152;9.828;2023-04-06T07:25:09;3.77;;;2.93;;
31114;SDS011;17764;47.152;9.828;2023-04-06T07:27:35;3.33;;;3.03;;
31114;SDS011;17764;47.152;9.828;2023-04-06T07:30:01;5.30;;;3.23;;
31114;SDS011;17764;47.152;9.828;2023-04-06T07:32:28;4.43;;;3.30;;
31114;SDS011;17764;47.152;9.828;2023-04-06T07:34:55;4.50;;;3.23;;
31114;SDS011;17764;47.152;9.828;2023-04-06T07:37:21;5.23;;;3.13;;
31114;SDS011;17764;47.152;9.828;2023-04-06T07:39:47;3.50;;;2.87;;
31114;SDS011;17764;47.152;9.828;2023-04-06T07:42:13;3.07;;;2.53;;
31114;SDS011;17764;47.152;9.828;2023-04-06T07:44:39;2.70;;;2.50;;
31114;SDS011;17764;47.152;9.828;2023-04-06T07:47:05;4.10;;;2.60;;
31114;SDS011;17764;47.152;9.828;2023-04-06T07:49:31;3.23;;;2.90;;
31114;SDS011;17764;47.152;9.828;2023-04-06T07:51:58;4.03;;;3.10;;
31114;SDS011;17764;47.152;9.828;2023-04-06T07:54:24;3.90;;;2.93;;
31114;SDS011;17764;47.152;9.828;2023-04-06T07:56:50;3.57;;;2.77;;
31114;SDS011;17764;47.152;9.828;2023-04-06T07:59:16;3.33;;;2.60;;
31114;SDS011;17764;47.152;9.828;2023-04-06T08:01:42;3.90;;;2.90;;
31114;SDS011;17764;47.152;9.828;2023-04-06T08:04:08;4.80;;;3.30;;
31114;SDS011;17764;47.152;9.828;2023-04-06T08:06:34;4.63;;;3.00;;
31114;SDS011;17764;47.152;9.828;2023-04-06T08:09:01;3.37;;;2.90;;
31114;SDS011;17764;47.152;9.828;2023-04-06T08:11:28;4.83;;;3.03;;
31114;SDS011;17764;47.152;9.828;2023-04-06T08:13:54;3.60;;;2.87;;
31114;SDS011;17764;47.152;9.828;2023-04-06T08:16:23;3.33;;;2.83;;
31114;SDS011;17764;47.152;9.828;2023-04-06T08:18:49;3.10;;;2.63;;
31114;SDS011;17764;47.152;9.828;2023-04-06T08:21:15;3.83;;;2.70;;
31114;SDS011;17764;47.152;9.828;2023-04-06T08:23:41;3.63;;;2.53;;
31114;SDS011;17764;47.152;9.828;2023-04-06T08:26:08;4.00;;;2.40;;
31114;SDS011;17764;47.152;9.828;2023-04-06T08:28:34;3.83;;;2.90;;
31114;SDS011;17764;47.152;9.828;2023-04-06T08:31:04;4.20;;;2.40;;
31114;SDS011;17764;47.152;9.828;2023-04-06T08:33:30;4.97;;;2.40;;
31114;SDS011;17764;47.152;9.828;2023-04-06T08:35:57;3.73;;;2.60;;
31114;SDS011;17764;47.152;9.828;2023-04-06T08:38:23;2.83;;;2.40;;
31114;SDS011;17764;47.152;9.828;2023-04-06T08:40:49;3.00;;;2.30;;
31114;SDS011;17764;47.152;9.828;2023-04-06T08:43:16;6.60;;;2.57;;
31114;SDS011;17764;47.152;9.828;2023-04-06T08:45:42;2.93;;;2.17;;
31114;SDS011;17764;47.152;9.828;2023-04-06T08:48:09;2.63;;;2.40;;
31114;SDS011;17764;47.152;9.828;2023-04-06T08:50:35;4.13;;;2.73;;
31114;SDS011;17764;47.152;9.828;2023-04-06T08:53:01;3.53;;;2.60;;
31114;SDS011;17764;47.152;9.828;2023-04-06T08:55:28;2.70;;;2.00;;
31114;SDS011;17764;47.152;9.828;2023-04-06T08:57:54;2.37;;;2.17;;
31114;SDS011;17764;47.152;9.828;2023-04-06T09:00:21;2.80;;;2.13;;
31114;SDS011;17764;47.152;9.828;2023-04-06T09:02:47;4.70;;;2.73;;
31114;SDS011;17764;47.152;9.828;2023-04-06T09:05:15;4.60;;;2.50;;
31114;SDS011;17764;47.152;9.828;2023-04-06T09:07:41;2.83;;;2.33;;
31114;SDS011;17764;47.152;9.828;2023-04-06T09:10:07;2.63;;;2.33;;
31114;SDS011;17764;47.152;9.828;2023-04-06T09:12:34;3.70;;;2.10;;
31114;SDS011;17764;47.152;9.828;2023-04-06T09:15:00;3.73;;;2.77;;
31114;SDS011;17764;47.152;9.828;2023-04-06T09:17:30;3.67;;;2.10;;
31114;SDS011;17764;47.152;9.828;2023-04-06T09:19:58;2.60;;;2.10;;
31114;SDS011;17764;47.152;9.828;2023-04-06T09:22:24;3.90;;;2.50;;
31114;SDS011;17764;47.152;9.828;2023-04-06T09:24:52;4.27;;;2.67;;
31114;SDS011;17764;47.152;9.828;2023-04-06T09:27:35;6.80;;;2.33;;
31114;SDS011;17764;47.152;9.828;2023-04-06T09:30:02;3.27;;;2.20;;
31114;SDS011;17764;47.152;9.828;2023-04-06T09:32:29;2.90;;;2.07;;
31114;SDS011;17764;47.152;9.828;2023-04-06T09:35:05;3.17;;;2.23;;
31114;SDS011;17764;47.152;9.828;2023-04-06T09:37:32;2.20;;;1.90;;
31114;SDS011;17764;47.152;9.828;2023-04-06T09:40:04;2.00;;;1.80;;
31114;SDS011;17764;47.152;9.828;2023-04-06T09:42:32;5.43;;;2.80;;
31114;SDS011;17764;47.152;9.828;2023-04-06T09:44:58;5.53;;;3.50;;
31114;SDS011;17764;47.152;9.828;2023-04-06T09:47:24;5.20;;;3.30;;
31114;SDS011;17764;47.152;9.828;2023-04-06T09:49:52;5.13;;;3.10;;
31114;SDS011;17764;47.152;9.828;2023-04-06T09:52:21;3.73;;;2.73;;
31114;SDS011;17764;47.152;9.828;2023-04-06T09:54:50;4.47;;;3.03;;
31114;SDS011;17764;47.152;9.828;2023-04-06T09:59:50;4.23;;;2.63;;
31114;SDS011;17764;47.152;9.828;2023-04-06T10:05:09;2.87;;;2.40;;
31114;SDS011;17764;47.152;9.828;2023-04-06T10:07:35;3.60;;;2.00;;
31114;SDS011;17764;47.152;9.828;2023-04-06T10:10:02;3.13;;;2.07;;
31114;SDS011;17764;47.152;9.828;2023-04-06T10:12:28;3.77;;;2.37;;
31114;SDS011;17764;47.152;9.828;2023-04-06T10:14:54;3.60;;;2.50;;
31114;SDS011;17764;47.152;9.828;2023-04-06T10:17:21;2.00;;;1.80;;
31114;SDS011;17764;47.152;9.828;2023-04-06T10:22:18;2.73;;;2.00;;
31114;SDS011;17764;47.152;9.828;2023-04-06T10:24:48;2.13;;;1.70;;
31114;SDS011;17764;47.152;9.828;2023-04-06T10:27:14;2.97;;;2.20;;
31114;SDS011;17764;47.152;9.828;2023-04-06T10:29:42;3.23;;;2.33;;
31114;SDS011;17764;47.152;9.828;2023-04-06T10:32:08;3.20;;;2.57;;
31114;SDS011;17764;47.152;9.828;2023-04-06T10:34:35;5.10;;;2.93;;
31114;SDS011;17764;47.152;9.828;2023-04-06T10:37:10;4.10;;;2.47;;
31114;SDS011;17764;47.152;9.828;2023-04-06T10:39:45;3.90;;;2.40;;
31114;SDS011;17764;47.152;9.828;2023-04-06T10:42:11;3.40;;;2.13;;
31114;SDS011;17764;47.152;9.828;2023-04-06T10:44:41;3.13;;;1.90;;
31114;SDS011;17764;47.152;9.828;2023-04-06T10:47:15;3.00;;;2.10;;
31114;SDS011;17764;47.152;9.828;2023-04-06T10:49:42;3.50;;;2.20;;
31114;SDS011;17764;47.152;9.828;2023-04-06T10:52:08;3.00;;;2.10;;
31114;SDS011;17764;47.152;9.828;2023-04-06T10:54:34;3.20;;;2.10;;
31114;SDS011;17764;47.152;9.828;2023-04-06T10:57:06;4.03;;;2.30;;
31114;SDS011;17764;47.152;9.828;2023-04-06T10:59:32;3.43;;;2.17;;
31114;SDS011;17764;47.152;9.828;2023-04-06T11:01:58;2.80;;;2.03;;
31114;SDS011;17764;47.152;9.828;2023-04-06T11:04:24;4.07;;;2.53;;
31114;SDS011;17764;47.152;9.828;2023-04-06T11:06:51;4.03;;;3.13;;
31114;SDS011;17764;47.152;9.828;2023-04-06T11:12:19;5.23;;;2.43;;
31114;SDS011;17764;47.152;9.828;2023-04-06T11:14:54;4.33;;;2.30;;
31114;SDS011;17764;47.152;9.828;2023-04-06T11:17:30;2.87;;;2.40;;
31114;SDS011;17764;47.152;9.828;2023-04-06T11:19:57;4.50;;;2.80;;
31114;SDS011;17764;47.152;9.828;2023-04-06T11:22:24;5.20;;;2.50;;
31114;SDS011;17764;47.152;9.828;2023-04-06T11:24:50;5.87;;;2.80;;
31114;SDS011;17764;47.152;9.828;2023-04-06T11:27:17;4.00;;;2.57;;
31114;SDS011;17764;47.152;9.828;2023-04-06T11:29:43;4.10;;;2.80;;
31114;SDS011;17764;47.152;9.828;2023-04-06T11:32:19;4.17;;;2.63;;
31114;SDS011;17764;47.152;9.828;2023-04-06T11:34:46;3.07;;;2.40;;
31114;SDS011;17764;47.152;9.828;2023-04-06T11:37:12;3.30;;;2.70;;
31114;SDS011;17764;47.152;9.828;2023-04-06T11:39:39;4.73;;;2.47;;
31114;SDS011;17764;47.152;9.828;2023-04-06T11:42:05;4.73;;;2.80;;
31114;SDS011;17764;47.152;9.828;2023-04-06T11:44:32;3.40;;;2.70;;
31114;SDS011;17764;47.152;9.828;2023-04-06T11:47:00;5.03;;;3.10;;
31114;SDS011;17764;47.152;9.828;2023-04-06T11:49:27;3.10;;;2.60;;
31114;SDS011;17764;47.152;9.828;2023-04-06T11:51:56;3.07;;;2.30;;
31114;SDS011;17764;47.152;9.828;2023-04-06T11:54:56;3.90;;;2.60;;
31114;SDS011;17764;47.152;9.828;2023-04-06T11:57:15;3.40;;;2.70;;
31114;SDS011;17764;47.152;9.828;2023-04-06T11:59:42;3.27;;;2.57;;
31114;SDS011;17764;47.152;9.828;2023-04-06T12:02:08;5.73;;;2.40;;
31114;SDS011;17764;47.152;9.828;2023-04-06T12:04:34;4.70;;;2.40;;
31114;SDS011;17764;47.152;9.828;2023-04-06T12:07:00;4.10;;;2.23;;
31114;SDS011;17764;47.152;9.828;2023-04-06T12:09:27;3.03;;;2.17;;
31114;SDS011;17764;47.152;9.828;2023-04-06T12:11:53;4.43;;;2.53;;
31114;SDS011;17764;47.152;9.828;2023-04-06T12:14:19;3.33;;;2.10;;
31114;SDS011;17764;47.152;9.828;2023-04-06T12:16:45;2.60;;;2.00;;
31114;SDS011;17764;47.152;9.828;2023-04-06T12:19:11;3.33;;;2.30;;
31114;SDS011;17764;47.152;9.828;2023-04-06T12:21:37;3.83;;;2.10;;
31114;SDS011;17764;47.152;9.828;2023-04-06T12:24:03;3.40;;;2.30;;
31114;SDS011;17764;47.152;9.828;2023-04-06T12:26:30;3.13;;;2.20;;
31114;SDS011;17764;47.152;9.828;2023-04-06T12:28:56;3.40;;;2.00;;
31114;SDS011;17764;47.152;9.828;2023-04-06T12:31:27;4.17;;;2.00;;
31114;SDS011;17764;47.152;9.828;2023-04-06T12:33:53;2.83;;;2.13;;
31114;SDS011;17764;47.152;9.828;2023-04-06T12:36:20;2.37;;;1.70;;
31114;SDS011;17764;47.152;9.828;2023-04-06T12:38:46;2.73;;;1.90;;
31114;SDS011;17764;47.152;9.828;2023-04-06T12:41:13;2.00;;;1.70;;
31114;SDS011;17764;47.152;9.828;2023-04-06T12:43:40;2.13;;;1.57;;
31114;SDS011;17764;47.152;9.828;2023-04-06T12:46:06;2.77;;;1.83;;
31114;SDS011;17764;47.152;9.828;2023-04-06T12:48:32;3.40;;;1.83;;
31114;SDS011;17764;47.152;9.828;2023-04-06T12:50:59;2.13;;;1.77;;
31114;SDS011;17764;47.152;9.828;2023-04-06T12:53:25;2.50;;;1.57;;
31114;SDS011;17764;47.152;9.828;2023-04-06T12:55:52;2.10;;;1.90;;
31114;SDS011;17764;47.152;9.828;2023-04-06T12:58:19;2.87;;;1.53;;
31114;SDS011;17764;47.152;9.828;2023-04-06T13:00:47;2.47;;;1.80;;
31114;SDS011;17764;47.152;9.828;2023-04-06T13:03:13;2.17;;;1.60;;
31114;SDS011;17764;47.152;9.828;2023-04-06T13:05:43;2.87;;;1.93;;
31114;SDS011;17764;47.152;9.828;2023-04-06T13:08:10;2.30;;;1.90;;
31114;SDS011;17764;47.152;9.828;2023-04-06T13:10:36;2.33;;;1.80;;
31114;SDS011;17764;47.152;9.828;2023-04-06T13:13:02;3.60;;;2.00;;
31114;SDS011;17764;47.152;9.828;2023-04-06T13:15:28;3.47;;;1.90;;
31114;SDS011;17764;47.152;9.828;2023-04-06T13:17:54;2.23;;;2.03;;
31114;SDS011;17764;47.152;9.828;2023-04-06T13:20:20;2.07;;;1.87;;
31114;SDS011;17764;47.152;9.828;2023-04-06T13:22:47;2.70;;;2.00;;
31114;SDS011;17764;47.152;9.828;2023-04-06T13:25:13;2.67;;;1.83;;
31114;SDS011;17764;47.152;9.828;2023-04-06T13:27:39;2.20;;;1.63;;
31114;SDS011;17764;47.152;9.828;2023-04-06T13:30:05;2.17;;;1.83;;
31114;SDS011;17764;47.152;9.828;2023-04-06T13:32:32;2.80;;;2.10;;
31114;SDS011;17764;47.152;9.828;2023-04-06T13:34:58;3.50;;;2.20;;
31114;SDS011;17764;47.152;9.828;2023-04-06T13:37:25;3.70;;;2.07;;
31114;SDS011;17764;47.152;9.828;2023-04-06T13:39:51;4.13;;;1.80;;
31114;SDS011;17764;47.152;9.828;2023-04-06T13:42:17;2.50;;;1.90;;
31114;SDS011;17764;47.152;9.828;2023-04-06T13:44:44;2.10;;;1.70;;
31114;SDS011;17764;47.152;9.828;2023-04-06T13:47:11;6.50;;;1.87;;
31114;SDS011;17764;47.152;9.828;2023-04-06T13:49:37;3.47;;;1.87;;
31114;SDS011;17764;47.152;9.828;2023-04-06T13:52:03;2.83;;;1.80;;
31114;SDS011;17764;47.152;9.828;2023-04-06T13:54:30;4.47;;;2.20;;
31114;SDS011;17764;47.152;9.828;2023-04-06T13:56:56;3.67;;;1.90;;
31114;SDS011;17764;47.152;9.828;2023-04-06T13:59:22;3.00;;;2.07;;
31114;SDS011;17764;47.152;9.828;2023-04-06T14:01:48;2.13;;;1.77;;
31114;SDS011;17764;47.152;9.828;2023-04-06T14:04:14;2.47;;;1.97;;
31114;SDS011;17764;47.152;9.828;2023-04-06T14:06:40;2.27;;;2.03;;
31114;SDS011;17764;47.152;9.828;2023-04-06T14:09:06;2.03;;;1.70;;
31114;SDS011;17764;47.152;9.828;2023-04-06T14:11:32;5.37;;;2.47;;
31114;SDS011;17764;47.152;9.828;2023-04-06T14:13:59;3.03;;;2.17;;
31114;SDS011;17764;47.152;9.828;2023-04-06T14:16:25;3.33;;;2.50;;
31114;SDS011;17764;47.152;9.828;2023-04-06T14:18:51;4.90;;;2.27;;
31114;SDS011;17764;47.152;9.828;2023-04-06T14:21:17;2.53;;;1.90;;
31114;SDS011;17764;47.152;9.828;2023-04-06T14:23:43;4.23;;;2.10;;
31114;SDS011;17764;47.152;9.828;2023-04-06T14:26:11;3.37;;;2.10;;
31114;SDS011;17764;47.152;9.828;2023-04-06T14:28:37;3.37;;;2.47;;
31114;SDS011;17764;47.152;9.828;2023-04-06T14:31:09;4.67;;;2.43;;
31114;SDS011;17764;47.152;9.828;2023-04-06T14:33:36;5.10;;;2.17;;
31114;SDS011;17764;47.152;9.828;2023-04-06T14:36:03;4.70;;;2.40;;
31114;SDS011;17764;47.152;9.828;2023-04-06T14:38:29;4.47;;;2.47;;
31114;SDS011;17764;47.152;9.828;2023-04-06T14:40:56;4.50;;;2.50;;
31114;SDS011;17764;47.152;9.828;2023-04-06T14:43:22;3.87;;;2.63;;
31114;SDS011;17764;47.152;9.828;2023-04-06T14:45:49;3.43;;;2.47;;
31114;SDS011;17764;47.152;9.828;2023-04-06T14:48:15;2.60;;;2.30;;
31114;SDS011;17764;47.152;9.828;2023-04-06T14:50:51;5.57;;;2.37;;
31114;SDS011;17764;47.152;9.828;2023-04-06T14:53:18;3.63;;;2.37;;
31114;SDS011;17764;47.152;9.828;2023-04-06T14:55:44;4.83;;;2.40;;